createdAt,value
2017-12-25T00:00:40.701Z,2.33
2017-12-25T00:05:42.227Z,1.50
2017-12-25T00:10:43.730Z,1.10
2017-12-25T00:15:45.255Z,1.40
2017-12-25T00:20:47.748Z,1.23
2017-12-25T00:25:50.008Z,1.87
2017-12-25T00:30:51.712Z,1.43
2017-12-25T00:35:53.257Z,1.33
2017-12-25T00:40:55.536Z,1.53
2017-12-25T00:45:57.062Z,1.73
2017-12-25T00:50:58.617Z,1.90
2017-12-25T00:56:00.136Z,1.40
2017-12-25T01:01:01.721Z,1.53
2017-12-25T01:06:03.977Z,1.90
2017-12-25T01:11:05.555Z,1.77
2017-12-25T01:16:07.075Z,1.87
2017-12-25T01:21:08.604Z,2.20
2017-12-25T01:26:10.880Z,1.80
2017-12-25T01:47:12.528Z,2.00
2017-12-25T01:52:14.023Z,2.40
2017-12-25T02:13:14.972Z,1.77
2017-12-25T02:18:17.254Z,1.67
2017-12-25T02:23:19.494Z,1.70
2017-12-25T02:28:21.021Z,1.43
2017-12-25T02:33:23.258Z,1.90
2017-12-25T02:38:24.769Z,1.97
2017-12-25T02:43:27.131Z,1.80
2017-12-25T02:48:28.648Z,2.10
2017-12-25T02:53:30.184Z,2.50
2017-12-25T02:58:32.433Z,1.90
2017-12-25T03:03:33.952Z,1.80
2017-12-25T03:08:35.456Z,2.13
2017-12-25T03:13:36.996Z,1.80
2017-12-25T03:18:38.515Z,1.63
2017-12-25T03:23:40.741Z,1.87
2017-12-25T03:28:42.289Z,1.63
2017-12-25T03:33:44.537Z,1.87
2017-12-25T03:38:46.080Z,1.40
2017-12-25T03:43:47.625Z,1.40
2017-12-25T03:48:49.172Z,1.63
2017-12-25T03:53:51.429Z,1.40
2017-12-25T03:58:52.948Z,1.30
2017-12-25T04:03:54.529Z,1.33
2017-12-25T04:08:56.106Z,1.27
2017-12-25T04:13:57.624Z,1.50
2017-12-25T04:18:59.137Z,1.30
2017-12-25T04:24:00.755Z,1.70
2017-12-25T04:29:02.257Z,1.87
2017-12-25T04:34:03.748Z,1.80
2017-12-25T04:39:05.257Z,1.90
2017-12-25T04:44:06.750Z,2.20
2017-12-25T04:49:08.268Z,2.00
2017-12-25T04:54:09.804Z,2.10
2017-12-25T04:59:11.358Z,2.37
2017-12-25T05:04:12.867Z,2.20
2017-12-25T05:09:14.354Z,2.50
2017-12-25T05:14:15.860Z,2.80
2017-12-25T05:19:17.353Z,2.70
2017-12-25T05:24:18.830Z,2.40
2017-12-25T05:29:20.310Z,2.00
2017-12-25T05:34:21.835Z,2.47
2017-12-25T05:39:23.346Z,2.10
2017-12-25T05:44:24.816Z,2.20
2017-12-25T05:49:26.318Z,2.17
2017-12-25T05:54:27.848Z,2.20
2017-12-25T05:59:29.349Z,2.77
2017-12-25T06:04:31.621Z,2.60
2017-12-25T06:09:33.867Z,2.80
2017-12-25T06:14:35.400Z,2.60
2017-12-25T06:19:36.880Z,2.37
2017-12-25T06:24:38.427Z,2.33
2017-12-25T06:29:39.932Z,2.53
2017-12-25T06:34:41.440Z,2.80
2017-12-25T06:39:43.673Z,2.13
2017-12-25T06:44:45.213Z,2.33
2017-12-25T06:49:46.672Z,1.83
2017-12-25T06:54:48.227Z,4.73
2017-12-25T06:59:50.464Z,1.83
2017-12-25T07:04:51.978Z,1.97
2017-12-25T07:09:54.216Z,1.80
2017-12-25T07:14:55.662Z,1.30
2017-12-25T07:19:57.169Z,1.40
2017-12-25T07:24:58.692Z,1.70
2017-12-25T07:30:00.229Z,1.10
2017-12-25T07:35:02.489Z,1.40
2017-12-25T07:40:03.987Z,0.97
2017-12-25T07:45:06.241Z,1.13
2017-12-25T07:50:07.755Z,1.53
2017-12-25T07:55:09.244Z,1.10
2017-12-25T08:00:10.735Z,0.67
2017-12-25T08:05:12.229Z,0.83
2017-12-25T08:10:14.457Z,1.20
2017-12-25T08:15:15.960Z,1.20
2017-12-25T08:20:17.465Z,1.30
2017-12-25T08:25:18.960Z,1.00
2017-12-25T08:30:20.460Z,0.80
2017-12-25T08:35:22.004Z,1.43
2017-12-25T08:40:23.612Z,0.97
2017-12-25T08:45:25.866Z,1.00
2017-12-25T08:50:27.446Z,0.83
2017-12-25T08:55:28.985Z,0.70
2017-12-25T09:00:30.537Z,1.20
2017-12-25T09:05:32.038Z,1.30
2017-12-25T09:10:33.642Z,1.07
2017-12-25T09:15:35.956Z,0.90
2017-12-25T09:20:37.416Z,0.90
2017-12-25T09:25:38.928Z,1.33
2017-12-25T09:30:40.466Z,1.30
2017-12-25T09:35:42.100Z,1.97
2017-12-25T09:40:44.334Z,1.63
2017-12-25T09:45:45.908Z,0.90
2017-12-25T09:50:47.446Z,0.80
2017-12-25T09:55:48.921Z,0.70
2017-12-25T10:00:50.530Z,1.20
2017-12-25T10:05:52.062Z,1.60
2017-12-25T10:10:53.577Z,0.77
2017-12-25T10:15:55.089Z,1.20
2017-12-25T10:20:56.663Z,0.80
2017-12-25T10:25:58.253Z,1.13
2017-12-25T10:30:59.796Z,1.60
2017-12-25T10:36:01.381Z,1.37
2017-12-25T10:41:02.905Z,1.20
2017-12-25T10:46:04.592Z,1.30
2017-12-25T10:51:06.103Z,2.50
2017-12-25T10:56:07.585Z,1.83
2017-12-25T11:01:09.144Z,2.20
2017-12-25T11:06:10.744Z,1.93
2017-12-25T11:11:12.360Z,1.63
2017-12-25T11:16:13.915Z,12.70
2017-12-25T11:21:15.445Z,4.13
2017-12-25T11:26:17.825Z,7.80
2017-12-25T11:31:20.107Z,3.97
2017-12-25T11:36:22.433Z,4.23
2017-12-25T11:41:23.952Z,3.40
2017-12-25T11:46:26.467Z,19.50
2017-12-25T11:51:28.036Z,2.50
2017-12-25T11:56:29.578Z,1.50
2017-12-25T12:01:31.936Z,2.10
2017-12-25T12:06:33.466Z,2.13
2017-12-25T12:11:34.988Z,2.50
2017-12-25T12:16:36.529Z,9.60
2017-12-25T12:21:38.052Z,1.93
2017-12-25T12:26:39.601Z,1.70
2017-12-25T12:31:41.861Z,1.87
2017-12-25T12:36:43.451Z,1.83
2017-12-25T12:41:45.014Z,2.20
2017-12-25T12:46:46.593Z,1.70
2017-12-25T12:51:48.907Z,1.60
2017-12-25T12:56:50.380Z,1.63
2017-12-25T13:01:51.928Z,1.40
2017-12-25T13:06:54.179Z,1.97
2017-12-25T13:11:55.745Z,2.10
2017-12-25T13:16:57.306Z,2.40
2017-12-25T13:21:58.837Z,2.00
2017-12-25T13:27:00.441Z,2.30
2017-12-25T13:32:02.087Z,3.43
2017-12-25T13:37:03.621Z,2.93
2017-12-25T13:42:05.134Z,5.20
2017-12-25T13:47:06.669Z,11.67
2017-12-25T13:52:08.295Z,13.53
2017-12-25T13:57:09.820Z,10.90
2017-12-25T14:02:11.401Z,13.33
2017-12-25T14:07:13.013Z,12.27
2017-12-25T14:12:15.397Z,9.20
2017-12-25T14:17:17.885Z,9.77
2017-12-25T14:22:19.425Z,9.40
2017-12-25T14:27:20.931Z,11.40
2017-12-25T14:32:23.216Z,9.90
2017-12-25T14:37:25.559Z,11.50
2017-12-25T14:42:27.144Z,10.03
2017-12-25T14:47:28.623Z,11.40
2017-12-25T14:52:30.192Z,14.23
2017-12-25T14:57:31.665Z,16.73
2017-12-25T15:02:33.933Z,10.70
2017-12-25T15:07:35.494Z,10.70
2017-12-25T15:12:36.984Z,10.30
2017-12-25T15:17:39.328Z,9.57
2017-12-25T15:22:40.843Z,10.50
2017-12-25T15:27:42.525Z,10.10
2017-12-25T15:32:44.036Z,8.70
2017-12-25T15:37:45.620Z,9.73
2017-12-25T15:42:47.187Z,16.63
2017-12-25T15:47:48.797Z,11.57
2017-12-25T15:52:51.110Z,10.10
2017-12-25T15:57:52.814Z,10.23
2017-12-25T16:02:54.291Z,10.37
2017-12-25T16:07:55.894Z,10.13
2017-12-25T16:12:57.454Z,12.40
2017-12-25T16:17:59.732Z,12.47
2017-12-25T16:23:01.999Z,12.33
2017-12-25T16:28:03.546Z,17.13
2017-12-25T16:33:05.097Z,11.17
2017-12-25T16:38:06.694Z,26.60
2017-12-25T16:43:08.278Z,13.77
2017-12-25T16:48:10.556Z,13.37
2017-12-25T16:53:12.119Z,13.00
2017-12-25T16:58:13.723Z,11.87
2017-12-25T17:03:16.004Z,11.37
2017-12-25T17:08:18.245Z,14.97
2017-12-25T17:13:19.797Z,13.13
2017-12-25T17:18:21.323Z,13.03
2017-12-25T17:23:23.512Z,14.10
2017-12-25T17:28:25.035Z,14.43
2017-12-25T17:33:26.571Z,15.57
2017-12-25T17:38:28.216Z,14.70
2017-12-25T17:43:29.787Z,13.00
2017-12-25T17:48:31.288Z,13.00
2017-12-25T17:53:32.798Z,15.30
2017-12-25T17:58:34.373Z,13.77
2017-12-25T18:03:36.594Z,15.10
2017-12-25T18:08:38.101Z,13.97
2017-12-25T18:13:39.613Z,14.03
2017-12-25T18:18:41.201Z,14.50
2017-12-25T18:23:42.726Z,14.77
2017-12-25T18:28:45.050Z,15.13
2017-12-25T18:33:46.578Z,15.90
2017-12-25T18:38:48.924Z,15.20
2017-12-25T18:43:50.470Z,15.10
2017-12-25T18:48:51.966Z,14.80
2017-12-25T18:53:53.502Z,16.43
2017-12-25T18:58:55.162Z,16.37
2017-12-25T19:03:56.694Z,15.33
2017-12-25T19:08:59.030Z,17.87
2017-12-25T19:14:00.528Z,15.00
2017-12-25T19:19:02.079Z,16.47
2017-12-25T19:24:03.579Z,21.27
2017-12-25T19:29:05.103Z,17.00
2017-12-25T19:34:06.674Z,17.50
2017-12-25T19:39:08.149Z,14.97
2017-12-25T19:44:09.724Z,18.93
2017-12-25T19:49:11.285Z,18.40
2017-12-25T19:54:12.958Z,17.97
2017-12-25T19:59:14.538Z,20.67
2017-12-25T20:04:16.008Z,20.10
2017-12-25T20:09:17.954Z,20.43
2017-12-25T20:14:19.572Z,19.43
2017-12-25T20:19:22.157Z,21.77
2017-12-25T20:24:23.710Z,26.13
2017-12-25T20:29:25.216Z,21.00
2017-12-25T20:34:26.803Z,22.20
2017-12-25T20:39:29.412Z,21.40
2017-12-25T20:44:31.079Z,20.57
2017-12-25T20:49:32.606Z,21.57
2017-12-25T20:54:34.805Z,23.97
2017-12-25T20:59:36.425Z,21.67
2017-12-25T21:04:37.984Z,25.00
2017-12-25T21:09:39.517Z,29.97
2017-12-25T21:14:41.007Z,24.13
2017-12-25T21:19:42.536Z,24.70
2017-12-25T21:24:44.841Z,22.50
2017-12-25T21:29:46.402Z,24.40
2017-12-25T21:34:47.859Z,22.90
2017-12-25T21:39:50.281Z,27.00
2017-12-25T21:44:51.789Z,24.33
2017-12-25T21:49:53.336Z,25.00
2017-12-25T21:54:54.862Z,27.50
2017-12-25T21:59:56.402Z,28.80
2017-12-25T22:04:58.824Z,30.23
2017-12-25T22:10:00.353Z,27.47
2017-12-25T22:15:02.855Z,37.97
2017-12-25T22:20:05.037Z,27.90
2017-12-25T22:25:07.413Z,27.10
2017-12-25T22:30:09.612Z,28.30
2017-12-25T22:35:11.817Z,30.03
2017-12-25T22:40:13.334Z,28.07
2017-12-25T22:45:15.024Z,31.20
2017-12-25T22:50:17.264Z,29.60
2017-12-25T22:55:18.940Z,32.93
2017-12-25T23:00:20.567Z,32.30
2017-12-25T23:05:22.817Z,30.40
2017-12-25T23:10:24.398Z,31.13
2017-12-25T23:15:26.798Z,31.93
2017-12-25T23:20:28.359Z,34.33
2017-12-25T23:25:30.646Z,31.17
2017-12-25T23:30:32.965Z,31.47
2017-12-25T23:35:34.501Z,33.00
2017-12-25T23:40:36.757Z,31.20
2017-12-25T23:45:38.322Z,33.67
2017-12-25T23:50:39.924Z,35.70
2017-12-25T23:55:41.492Z,33.30
